createdAt,value
2016-02-19T00:00:03.969Z,0
2016-02-19T00:01:04.018Z,0
2016-02-19T00:02:04.068Z,0
2016-02-19T00:03:04.133Z,0
2016-02-19T00:04:04.166Z,0
2016-02-19T00:05:04.216Z,0
2016-02-19T00:06:04.266Z,0
2016-02-19T00:07:04.315Z,0
2016-02-19T00:08:04.366Z,0
2016-02-19T00:09:04.446Z,0
2016-02-19T00:10:04.480Z,0
2016-02-19T00:11:04.545Z,0
2016-02-19T00:12:04.579Z,0
2016-02-19T00:13:04.629Z,0
2016-02-19T00:14:04.693Z,0
2016-02-19T00:15:04.712Z,0
2016-02-19T00:16:04.761Z,0
2016-02-19T00:17:04.842Z,0
2016-02-19T00:18:04.892Z,0
2016-02-19T00:19:04.910Z,0
2016-02-19T00:20:04.975Z,0
2016-02-19T00:21:05.025Z,0
2016-02-19T00:22:05.075Z,0
2016-02-19T00:23:05.108Z,0
2016-02-19T00:24:05.158Z,0
2016-02-19T00:25:05.208Z,0
2016-02-19T00:26:05.272Z,0
2016-02-19T00:27:05.339Z,0
2016-02-19T00:28:05.403Z,0
2016-02-19T00:29:05.421Z,0
2016-02-19T00:30:05.490Z,0
2016-02-19T00:31:05.524Z,0
2016-02-19T00:32:05.574Z,0
2016-02-19T00:33:05.624Z,0
2016-02-19T00:34:05.689Z,0
2016-02-19T00:35:05.722Z,0
2016-02-19T00:36:05.788Z,0
2016-02-19T00:37:05.837Z,0
2016-02-19T00:38:05.886Z,0
2016-02-19T00:39:05.937Z,0
2016-02-19T00:40:05.970Z,0
2016-02-19T00:41:06.036Z,0
2016-02-19T00:42:06.086Z,0
2016-02-19T00:43:06.150Z,0
2016-02-19T00:44:06.184Z,0
2016-02-19T00:45:06.234Z,0
2016-02-19T00:46:06.283Z,0
2016-02-19T00:47:06.333Z,0
2016-02-19T00:48:06.382Z,0
2016-02-19T00:49:06.448Z,0
2016-02-19T00:50:06.482Z,0
2016-02-19T00:51:06.532Z,0
2016-02-19T00:52:06.581Z,0
2016-02-19T00:53:05.865Z,0
2016-02-19T00:54:06.665Z,0
2016-02-19T00:55:06.730Z,0
2016-02-19T00:56:06.779Z,0
2016-02-19T00:57:06.813Z,0
2016-02-19T00:58:06.863Z,0
2016-02-19T00:59:06.943Z,0
2016-02-19T01:00:06.977Z,0
2016-02-19T01:01:07.027Z,0
2016-02-19T01:02:07.076Z,0
2016-02-19T01:03:07.142Z,0
2016-02-19T01:04:07.192Z,0
2016-02-19T01:05:07.162Z,0
2016-02-19T01:06:07.283Z,0
2016-02-19T01:07:07.365Z,0
2016-02-19T01:08:07.382Z,0
2016-02-19T01:09:07.432Z,0
2016-02-19T01:10:07.498Z,0
2016-02-19T01:11:07.515Z,0
2016-02-19T01:12:07.565Z,0
2016-02-19T01:13:07.646Z,0
2016-02-19T01:14:07.680Z,0
2016-02-19T01:15:07.729Z,0
2016-02-19T01:16:07.779Z,0
2016-02-19T01:17:07.829Z,0
2016-02-19T01:18:07.878Z,0
2016-02-19T01:19:07.928Z,0
2016-02-19T01:20:07.992Z,0
2016-02-19T01:21:08.042Z,0
2016-02-19T01:22:08.093Z,0
2016-02-19T01:23:08.142Z,0
2016-02-19T01:24:08.191Z,0
2016-02-19T01:25:08.257Z,0
2016-02-19T01:26:08.291Z,0
2016-02-19T01:27:08.340Z,0
2016-02-19T01:28:08.374Z,0
2016-02-19T01:29:08.424Z,0
2016-02-19T01:30:08.473Z,0
2016-02-19T01:31:08.539Z,0
2016-02-19T01:32:08.589Z,0
2016-02-19T01:33:08.638Z,0
2016-02-19T01:34:08.687Z,0
2016-02-19T01:35:08.736Z,0
2016-02-19T01:36:08.802Z,0
2016-02-19T01:37:08.835Z,0
2016-02-19T01:38:08.885Z,0
2016-02-19T01:39:08.935Z,0
2016-02-19T01:40:08.984Z,0
2016-02-19T01:41:09.050Z,0
2016-02-19T01:42:09.084Z,0
2016-02-19T01:43:09.148Z,0
2016-02-19T01:44:09.199Z,0
2016-02-19T01:45:09.232Z,0
2016-02-19T01:46:09.282Z,0
2016-02-19T01:47:09.348Z,0
2016-02-19T01:48:09.381Z,0
2016-02-19T01:49:09.431Z,0
2016-02-19T01:50:09.512Z,0
2016-02-19T01:51:09.561Z,0
2016-02-19T01:52:09.611Z,0
2016-02-19T01:53:09.629Z,0
2016-02-19T01:54:09.663Z,0
2016-02-19T01:55:09.744Z,0
2016-02-19T01:56:09.793Z,0
2016-02-19T01:57:09.842Z,0
2016-02-19T01:58:09.908Z,0
2016-02-19T01:59:09.941Z,0
2016-02-19T02:00:09.835Z,0
2016-02-19T02:01:10.041Z,0
2016-02-19T02:02:10.090Z,0
2016-02-19T02:03:10.155Z,0
2016-02-19T02:04:10.189Z,0
2016-02-19T02:05:10.239Z,0
2016-02-19T02:06:10.273Z,0
2016-02-19T02:07:10.369Z,0
2016-02-19T02:08:10.404Z,0
2016-02-19T02:09:10.438Z,0
2016-02-19T02:10:10.487Z,0
2016-02-19T02:11:10.552Z,0
2016-02-19T02:12:10.585Z,0
2016-02-19T02:13:10.636Z,0
2016-02-19T02:14:10.716Z,0
2016-02-19T02:15:10.750Z,0
2016-02-19T02:16:10.801Z,0
2016-02-19T02:17:10.849Z,0
2016-02-19T02:18:10.884Z,0
2016-02-19T02:19:10.980Z,0
2016-02-19T02:20:10.998Z,0
2016-02-19T02:21:11.048Z,0
2016-02-19T02:22:11.113Z,0
2016-02-19T02:23:11.132Z,0
2016-02-19T02:24:11.181Z,0
2016-02-19T02:25:11.245Z,0
2016-02-19T02:26:11.280Z,0
2016-02-19T02:27:11.345Z,0
2016-02-19T02:28:11.395Z,0
2016-02-19T02:29:11.461Z,0
2016-02-19T02:30:11.509Z,0
2016-02-19T02:31:11.527Z,0
2016-02-19T02:32:11.594Z,0
2016-02-19T02:33:11.658Z,0
2016-02-19T02:34:11.691Z,0
2016-02-19T02:35:11.773Z,0
2016-02-19T02:36:11.807Z,0
2016-02-19T02:37:11.888Z,0
2016-02-19T02:38:11.890Z,0
2016-02-19T02:39:11.971Z,0
2016-02-19T02:40:12.021Z,0
2016-02-19T02:41:12.054Z,0
2016-02-19T02:42:12.089Z,0
2016-02-19T02:43:12.057Z,0
2016-02-19T02:44:13.942Z,0
2016-02-19T02:45:12.239Z,0
2016-02-19T02:46:16.750Z,0
2016-02-19T02:47:12.471Z,0
2016-02-19T02:48:12.395Z,0
2016-02-19T02:49:12.445Z,0
2016-02-19T02:50:12.495Z,0
2016-02-19T02:51:12.389Z,0
2016-02-19T02:52:12.656Z,0
2016-02-19T02:53:12.628Z,0
2016-02-19T02:54:12.694Z,0
2016-02-19T02:55:12.790Z,0
2016-02-19T02:56:12.801Z,0
2016-02-19T02:57:12.835Z,0
2016-02-19T02:58:12.900Z,0
2016-02-19T02:59:12.950Z,0
2016-02-19T03:00:13.014Z,0
2016-02-19T03:01:13.034Z,0
2016-02-19T03:02:13.114Z,0
2016-02-19T03:03:13.133Z,0
2016-02-19T03:04:13.182Z,0
2016-02-19T03:05:13.247Z,0
2016-02-19T03:06:13.313Z,0
2016-02-19T03:07:13.331Z,0
2016-02-19T03:08:13.428Z,0
2016-02-19T03:09:13.430Z,0
2016-02-19T03:10:13.510Z,0
2016-02-19T03:11:13.544Z,0
2016-02-19T03:12:13.610Z,0
2016-02-19T03:13:13.659Z,0
2016-02-19T03:14:13.724Z,0
2016-02-19T03:15:13.727Z,0
2016-02-19T03:16:13.823Z,0
2016-02-19T03:17:13.858Z,0
2016-02-19T03:18:13.938Z,0
2016-02-19T03:19:13.973Z,0
2016-02-19T03:20:14.037Z,0
2016-02-19T03:21:14.087Z,0
2016-02-19T03:22:14.137Z,0
2016-02-19T03:23:14.186Z,0
2016-02-19T03:24:14.220Z,0
2016-02-19T03:25:14.301Z,0
2016-02-19T03:26:14.209Z,0
2016-02-19T03:27:14.385Z,0
2016-02-19T03:28:14.434Z,0
2016-02-19T03:29:14.514Z,0
2016-02-19T03:30:14.533Z,0
2016-02-19T03:31:14.583Z,0
2016-02-19T03:32:14.664Z,0
2016-02-19T03:33:14.728Z,0
2016-02-19T03:34:14.731Z,0
2016-02-19T03:35:14.781Z,0
2016-02-19T03:36:14.830Z,0
2016-02-19T03:37:14.912Z,0
2016-02-19T03:38:14.945Z,0
2016-02-19T03:39:14.980Z,0
2016-02-19T03:40:15.060Z,0
2016-02-19T03:41:15.110Z,0
2016-02-19T03:42:15.127Z,0
2016-02-19T03:43:15.208Z,0
2016-02-19T03:44:15.258Z,0
2016-02-19T03:45:15.276Z,0
2016-02-19T03:46:15.342Z,0
2016-02-19T03:47:15.391Z,0
2016-02-19T03:48:15.426Z,0
2016-02-19T03:49:15.474Z,0
2016-02-19T03:50:15.571Z,0
2016-02-19T03:51:15.574Z,0
2016-02-19T03:52:15.654Z,0
2016-02-19T03:53:15.689Z,0
2016-02-19T03:54:15.738Z,0
2016-02-19T03:55:15.787Z,0
2016-02-19T03:56:15.854Z,0
2016-02-19T03:57:15.918Z,0
2016-02-19T03:58:15.937Z,0
2016-02-19T03:59:16.001Z,0
2016-02-19T04:00:16.020Z,0
2016-02-19T04:01:16.132Z,0
2016-02-19T04:02:16.119Z,0
2016-02-19T04:03:16.184Z,0
2016-02-19T04:04:16.234Z,0
2016-02-19T04:05:16.283Z,0
2016-02-19T04:06:16.317Z,0
2016-02-19T04:07:16.383Z,0
2016-02-19T04:08:16.463Z,0
2016-02-19T04:09:16.482Z,0
2016-02-19T04:10:16.531Z,0
2016-02-19T04:11:16.596Z,0
2016-02-19T04:12:16.630Z,0
2016-02-19T04:13:16.727Z,0
2016-02-19T04:14:16.730Z,0
2016-02-19T04:15:16.815Z,0
2016-02-19T04:16:16.849Z,0
2016-02-19T04:17:16.868Z,0
2016-02-19T04:18:16.948Z,0
2016-02-19T04:19:16.982Z,0
2016-02-19T04:20:17.016Z,0
2016-02-19T04:21:17.097Z,0
2016-02-19T04:22:17.131Z,0
2016-02-19T04:23:17.181Z,0
2016-02-19T04:24:17.231Z,0
2016-02-19T04:25:17.295Z,0
2016-02-19T04:26:17.345Z,0
2016-02-19T04:27:17.425Z,0
2016-02-19T04:28:17.428Z,0
2016-02-19T04:29:17.477Z,0
2016-02-19T04:30:17.543Z,0
2016-02-19T04:31:17.608Z,0
2016-02-19T04:32:17.642Z,0
2016-02-19T04:33:17.708Z,0
2016-02-19T04:34:17.757Z,0
2016-02-19T04:35:17.760Z,0
2016-02-19T04:36:17.856Z,0
2016-02-19T04:37:17.890Z,0
2016-02-19T04:38:17.971Z,0
2016-02-19T04:39:17.988Z,0
2016-02-19T04:40:18.070Z,0
2016-02-19T04:41:18.088Z,0
2016-02-19T04:42:18.138Z,0
2016-02-19T04:43:18.188Z,0
2016-02-19T04:44:18.221Z,0
2016-02-19T04:45:18.271Z,0
2016-02-19T04:46:18.368Z,0
2016-02-19T04:47:17.635Z,0
2016-02-19T04:48:18.435Z,0
2016-02-19T04:49:18.484Z,0
2016-02-19T04:50:18.565Z,0
2016-02-19T04:51:18.584Z,0
2016-02-19T04:52:18.618Z,0
2016-02-19T04:53:18.684Z,0
2016-02-19T04:54:18.748Z,0
2016-02-19T04:55:18.781Z,0
2016-02-19T04:56:18.832Z,0
2016-02-19T04:57:18.897Z,0
2016-02-19T04:58:18.962Z,0
2016-02-19T04:59:18.949Z,0
2016-02-19T05:00:19.077Z,0
2016-02-19T05:01:19.111Z,0
2016-02-19T05:02:19.144Z,0
2016-02-19T05:03:19.211Z,0
2016-02-19T05:04:19.228Z,0
2016-02-19T05:05:19.324Z,0
2016-02-19T05:06:19.328Z,0
2016-02-19T05:07:19.377Z,0
2016-02-19T05:08:19.442Z,0
2016-02-19T05:09:19.522Z,0
2016-02-19T05:10:19.525Z,0
2016-02-19T05:11:19.607Z,0
2016-02-19T05:12:19.687Z,0
2016-02-19T05:13:19.675Z,0
2016-02-19T05:14:19.818Z,0
2016-02-19T05:15:19.804Z,0
2016-02-19T05:16:19.824Z,0
2016-02-19T05:17:19.888Z,0
2016-02-19T05:18:19.938Z,0
2016-02-19T05:19:19.987Z,0
2016-02-19T05:20:20.052Z,0
2016-02-19T05:21:20.056Z,0
2016-02-19T05:22:20.106Z,0
2016-02-19T05:23:20.171Z,0
2016-02-19T05:24:20.158Z,0
2016-02-19T05:25:20.206Z,0
2016-02-19T05:26:20.266Z,0
2016-02-19T05:27:20.310Z,0
2016-02-19T05:28:20.337Z,0
2016-02-19T05:29:20.413Z,0
2016-02-19T05:30:20.441Z,0
2016-02-19T05:31:20.457Z,0
2016-02-19T05:32:19.770Z,0
2016-02-19T05:33:20.599Z,0
2016-02-19T05:34:20.616Z,0
2016-02-19T05:35:20.663Z,0
2016-02-19T05:36:20.743Z,0
2016-02-19T05:37:20.745Z,0
2016-02-19T05:38:20.825Z,0
2016-02-19T05:39:20.874Z,0
2016-02-19T05:40:20.766Z,0
2016-02-19T05:41:20.957Z,0
2016-02-19T05:42:21.006Z,0
2016-02-19T05:43:21.087Z,0
2016-02-19T05:44:21.137Z,0
2016-02-19T05:45:21.170Z,0
2016-02-19T05:46:21.189Z,0
2016-02-19T05:47:21.286Z,0
2016-02-19T05:48:21.303Z,0
2016-02-19T05:49:21.369Z,0
2016-02-19T05:50:21.418Z,0
2016-02-19T05:51:21.453Z,0
2016-02-19T05:52:21.517Z,0
2016-02-19T05:53:21.583Z,0
2016-02-19T05:54:21.602Z,0
2016-02-19T05:55:21.682Z,0
2016-02-19T05:56:21.700Z,0
2016-02-19T05:57:21.765Z,0
2016-02-19T05:58:21.800Z,0
2016-02-19T05:59:21.849Z,0
2016-02-19T06:00:21.929Z,0
2016-02-19T06:01:21.963Z,0
2016-02-19T06:02:22.029Z,0
2016-02-19T06:03:22.047Z,0
2016-02-19T06:04:22.129Z,0
2016-02-19T06:05:22.037Z,0
2016-02-19T06:06:22.203Z,0
2016-02-19T06:07:22.284Z,0
2016-02-19T06:08:22.302Z,0
2016-02-19T06:09:22.383Z,0
2016-02-19T06:10:22.416Z,0
2016-02-19T06:11:22.451Z,0
2016-02-19T06:12:22.531Z,0
2016-02-19T06:13:22.581Z,0
2016-02-19T06:14:22.599Z,0
2016-02-19T06:15:22.664Z,0
2016-02-19T06:16:22.730Z,0
2016-02-19T06:17:22.732Z,0
2016-02-19T06:18:22.830Z,0
2016-02-19T06:19:22.878Z,0
2016-02-19T06:20:22.927Z,0
2016-02-19T06:21:22.977Z,0
2016-02-19T06:22:23.011Z,0
2016-02-19T06:23:23.076Z,0
2016-02-19T06:24:23.141Z,0
2016-02-19T06:25:23.176Z,0
2016-02-19T06:26:23.210Z,0
2016-02-19T06:27:23.259Z,0
2016-02-19T06:28:23.293Z,0
2016-02-19T06:29:23.359Z,0
2016-02-19T06:30:23.423Z,0
2016-02-19T06:31:23.457Z,0
2016-02-19T06:32:23.492Z,0
2016-02-19T06:33:23.556Z,0
2016-02-19T06:34:23.622Z,0
2016-02-19T06:35:23.655Z,0
2016-02-19T06:36:23.706Z,0
2016-02-19T06:37:23.755Z,12
2016-02-19T06:38:23.820Z,12
2016-02-19T06:39:23.870Z,12
2016-02-19T06:40:23.889Z,12
2016-02-19T06:41:23.953Z,12
2016-02-19T06:42:24.019Z,12
2016-02-19T06:43:24.036Z,12
2016-02-19T06:45:53.185Z,12
2016-02-19T06:46:05.794Z,12
2016-02-19T06:47:05.689Z,12
2016-02-19T06:48:05.878Z,0
2016-02-19T06:49:05.928Z,0
2016-02-19T06:50:06.008Z,0
2016-02-19T06:51:05.871Z,0
2016-02-19T06:52:06.155Z,0
2016-02-19T06:53:06.141Z,0
2016-02-19T06:54:06.192Z,0
2016-02-19T06:55:06.241Z,4
2016-02-19T06:56:06.307Z,4
2016-02-19T06:57:06.355Z,4
2016-02-19T06:58:06.358Z,4
2016-02-19T06:59:06.424Z,4
2016-02-19T07:00:06.910Z,0
2016-02-19T07:01:06.523Z,0
2016-02-19T07:02:06.573Z,4
2016-02-19T07:03:06.621Z,4
2016-02-19T07:04:06.687Z,4
2016-02-19T07:05:06.742Z,4
2016-02-19T07:06:06.760Z,4
2016-02-19T07:07:06.825Z,4
2016-02-19T07:08:06.890Z,4
2016-02-19T07:09:06.893Z,4
2016-02-19T07:10:06.958Z,4
2016-02-19T07:11:07.039Z,4
2016-02-19T07:12:07.042Z,4
2016-02-19T07:13:07.106Z,0
2016-02-19T07:14:07.156Z,12
2016-02-19T07:15:07.221Z,8
2016-02-19T07:16:07.256Z,16
2016-02-19T07:17:07.305Z,16
2016-02-19T07:18:07.354Z,12
2016-02-19T07:19:07.372Z,12
2016-02-19T07:20:07.438Z,12
2016-02-19T07:21:07.503Z,12
2016-02-19T07:22:07.522Z,16
2016-02-19T07:23:07.603Z,16
2016-02-19T07:24:07.715Z,16
2016-02-19T07:25:07.685Z,16
2016-02-19T07:26:07.736Z,16
2016-02-19T07:27:07.754Z,16
2016-02-19T07:28:07.835Z,12
2016-02-19T07:29:07.868Z,12
2016-02-19T07:30:07.918Z,12
2016-02-19T07:31:07.999Z,12
2016-02-19T07:32:08.032Z,12
2016-02-19T07:33:08.068Z,12
2016-02-19T07:34:08.101Z,12
2016-02-19T07:35:08.212Z,16
2016-02-19T07:36:08.215Z,16
2016-02-19T07:37:08.250Z,16
2016-02-19T07:38:08.331Z,16
2016-02-19T07:39:08.364Z,16
2016-02-19T07:40:08.414Z,16
2016-02-19T07:41:08.448Z,16
2016-02-19T07:42:08.481Z,16
2016-02-19T07:43:08.406Z,16
2016-02-19T07:44:08.597Z,16
2016-02-19T07:45:08.630Z,16
2016-02-19T07:46:08.695Z,12
2016-02-19T07:47:08.730Z,20
2016-02-19T07:48:08.795Z,16
2016-02-19T07:49:08.844Z,16
2016-02-19T07:50:08.893Z,20
2016-02-19T07:51:08.928Z,20
2016-02-19T07:52:08.977Z,20
2016-02-19T07:53:09.043Z,16
2016-02-19T07:54:09.092Z,20
2016-02-19T07:55:09.141Z,20
2016-02-19T07:56:09.176Z,20
2016-02-19T07:57:09.241Z,20
2016-02-19T07:58:09.291Z,24
2016-02-19T07:59:09.309Z,20
2016-02-19T08:00:09.374Z,20
2016-02-19T08:01:09.423Z,20
2016-02-19T08:02:09.457Z,20
2016-02-19T08:03:09.554Z,24
2016-02-19T08:04:09.556Z,16
2016-02-19T08:05:09.627Z,24
2016-02-19T08:06:09.661Z,20
2016-02-19T08:07:09.710Z,24
2016-02-19T08:08:09.759Z,24
2016-02-19T08:09:09.856Z,24
2016-02-19T08:10:09.905Z,24
2016-02-19T08:11:09.924Z,24
2016-02-19T08:12:09.989Z,28
2016-02-19T08:13:10.039Z,24
2016-02-19T08:14:10.057Z,28
2016-02-19T08:15:10.169Z,28
2016-02-19T08:16:10.156Z,28
2016-02-19T08:17:10.237Z,28
2016-02-19T08:18:10.239Z,28
2016-02-19T08:19:10.304Z,28
2016-02-19T08:20:10.386Z,28
2016-02-19T08:21:10.388Z,28
2016-02-19T08:22:10.454Z,28
2016-02-19T08:23:10.519Z,28
2016-02-19T08:24:10.552Z,32
2016-02-19T08:25:10.587Z,32
2016-02-19T08:26:10.668Z,28
2016-02-19T08:27:10.732Z,28
2016-02-19T08:28:09.985Z,24
2016-02-19T08:29:10.815Z,20
2016-02-19T08:30:10.085Z,20
2016-02-19T08:31:10.899Z,32
2016-02-19T08:32:10.981Z,32
2016-02-19T08:33:10.968Z,32
2016-02-19T08:34:11.142Z,32
2016-02-19T08:35:11.114Z,32
2016-02-19T08:36:11.132Z,32
2016-02-19T08:37:11.213Z,28
2016-02-19T08:38:11.247Z,28
2016-02-19T08:39:11.280Z,28
2016-02-19T08:40:11.377Z,28
2016-02-19T08:41:11.426Z,28
2016-02-19T08:42:11.444Z,24
2016-02-19T08:43:11.495Z,32
2016-02-19T08:44:11.528Z,36
2016-02-19T08:45:11.594Z,36
2016-02-19T08:46:11.674Z,36
2016-02-19T08:47:11.677Z,36
2016-02-19T08:48:11.727Z,36
2016-02-19T08:49:11.792Z,36
2016-02-19T08:50:11.825Z,28
2016-02-19T08:51:11.875Z,28
2016-02-19T08:52:12.002Z,32
2016-02-19T08:53:11.975Z,28
2016-02-19T08:54:12.024Z,28
2016-02-19T08:55:12.105Z,32
2016-02-19T08:56:12.123Z,32
2016-02-19T08:57:12.157Z,24
2016-02-19T08:58:12.238Z,28
2016-02-19T08:59:12.303Z,28
2016-02-19T09:00:12.321Z,28
2016-02-19T09:01:12.449Z,28
2016-02-19T09:02:12.451Z,32
2016-02-19T09:03:12.501Z,32
2016-02-19T09:04:12.520Z,32
2016-02-19T09:05:12.570Z,28
2016-02-19T09:06:12.618Z,32
2016-02-19T09:07:12.684Z,32
2016-02-19T09:08:12.718Z,28
2016-02-19T09:09:12.048Z,32
2016-02-19T09:10:12.817Z,36
2016-02-19T09:11:12.867Z,36
2016-02-19T09:12:12.948Z,32
2016-02-19T09:13:12.981Z,36
2016-02-19T09:14:13.000Z,20
2016-02-19T09:15:13.080Z,40
2016-02-19T09:16:13.005Z,36
2016-02-19T09:17:13.147Z,36
2016-02-19T09:18:13.198Z,40
2016-02-19T09:19:13.263Z,40
2016-02-19T09:20:13.312Z,40
2016-02-19T09:21:13.377Z,40
2016-02-19T09:22:13.880Z,40
2016-02-19T09:23:13.461Z,40
2016-02-19T09:24:13.511Z,40
2016-02-19T09:25:13.544Z,40
2016-02-19T09:26:13.610Z,40
2016-02-19T09:27:13.659Z,44
2016-02-19T09:28:13.694Z,44
2016-02-19T09:29:13.743Z,48
2016-02-19T09:30:13.807Z,44
2016-02-19T09:31:13.873Z,44
2016-02-19T09:32:13.876Z,48
2016-02-19T09:33:13.957Z,48
2016-02-19T09:34:13.991Z,48
2016-02-19T09:35:14.071Z,48
2016-02-19T09:36:14.090Z,48
2016-02-19T09:37:14.139Z,48
2016-02-19T09:38:14.221Z,56
2016-02-19T09:39:14.270Z,52
2016-02-19T09:40:14.288Z,52
2016-02-19T09:41:14.353Z,56
2016-02-19T09:42:14.403Z,56
2016-02-19T09:43:14.421Z,60
2016-02-19T09:44:14.503Z,60
2016-02-19T09:45:14.567Z,60
2016-02-19T09:46:14.585Z,64
2016-02-19T09:47:14.666Z,64
2016-02-19T09:48:14.700Z,64
2016-02-19T09:49:14.750Z,64
2016-02-19T09:50:14.783Z,64
2016-02-19T09:51:14.833Z,72
2016-02-19T09:52:14.914Z,68
2016-02-19T09:53:14.948Z,64
2016-02-19T09:54:14.967Z,64
2016-02-19T09:55:14.875Z,64
2016-02-19T09:56:15.096Z,64
2016-02-19T09:57:15.130Z,64
2016-02-19T09:58:15.196Z,60
2016-02-19T09:59:15.246Z,68
2016-02-19T10:00:15.295Z,64
2016-02-19T10:01:15.345Z,68
2016-02-19T10:02:15.363Z,68
2016-02-19T10:03:15.428Z,64
2016-02-19T10:04:15.509Z,64
2016-02-19T10:05:15.527Z,64
2016-02-19T10:06:15.592Z,64
2016-02-19T10:07:15.643Z,64
2016-02-19T10:08:15.676Z,72
2016-02-19T10:09:15.742Z,72
2016-02-19T10:10:15.790Z,76
2016-02-19T10:11:15.668Z,76
2016-02-19T10:12:15.905Z,76
2016-02-19T10:13:15.940Z,84
2016-02-19T10:14:15.958Z,84
2016-02-19T10:15:16.039Z,88
2016-02-19T10:16:16.072Z,84
2016-02-19T10:17:16.122Z,84
2016-02-19T10:18:16.187Z,84
2016-02-19T10:19:16.252Z,88
2016-02-19T10:20:16.271Z,84
2016-02-19T10:21:16.399Z,116
2016-02-19T10:22:16.401Z,88
2016-02-19T10:23:16.405Z,104
2016-02-19T10:24:16.485Z,104
2016-02-19T10:25:16.518Z,108
2016-02-19T10:26:16.584Z,92
2016-02-19T10:27:16.618Z,100
2016-02-19T10:28:16.652Z,100
2016-02-19T10:29:16.732Z,100
2016-02-19T10:30:16.782Z,116
2016-02-19T10:31:16.832Z,116
2016-02-19T10:32:16.866Z,108
2016-02-19T10:33:16.932Z,100
2016-02-19T10:34:16.965Z,92
2016-02-19T10:35:17.029Z,76
2016-02-19T10:36:17.079Z,72
2016-02-19T10:37:17.098Z,60
2016-02-19T10:38:17.162Z,64
2016-02-19T10:39:16.478Z,76
2016-02-19T10:40:17.262Z,72
2016-02-19T10:41:17.358Z,68
2016-02-19T10:42:17.424Z,80
2016-02-19T10:43:17.426Z,76
2016-02-19T10:44:17.460Z,72
2016-02-19T10:45:17.542Z,40
2016-02-19T10:46:17.591Z,76
2016-02-19T10:47:17.625Z,72
2016-02-19T10:48:17.517Z,72
2016-02-19T10:49:17.739Z,68
2016-02-19T10:50:17.758Z,68
2016-02-19T10:51:17.870Z,68
2016-02-19T10:52:17.951Z,68
2016-02-19T10:53:17.938Z,72
2016-02-19T10:54:17.988Z,84
2016-02-19T10:55:18.006Z,84
2016-02-19T10:56:18.071Z,84
2016-02-19T10:57:18.151Z,80
2016-02-19T10:58:18.154Z,72
2016-02-19T10:59:18.204Z,80
2016-02-19T11:00:18.269Z,80
2016-02-19T11:01:18.303Z,72
2016-02-19T11:02:18.337Z,72
2016-02-19T11:03:18.401Z,64
2016-02-19T11:04:18.468Z,64
2016-02-19T11:05:18.501Z,68
2016-02-19T11:06:18.534Z,60
2016-02-19T11:07:18.601Z,48
2016-02-19T11:08:18.665Z,48
2016-02-19T11:09:18.699Z,48
2016-02-19T11:10:18.765Z,44
2016-02-19T11:11:18.814Z,44
2016-02-19T11:12:18.864Z,44
2016-02-19T11:13:18.898Z,40
2016-02-19T11:14:18.947Z,44
2016-02-19T11:15:18.997Z,44
2016-02-19T11:16:19.062Z,44
2016-02-19T11:17:19.081Z,48
2016-02-19T11:18:19.130Z,44
2016-02-19T11:19:19.226Z,48
2016-02-19T11:20:19.245Z,44
2016-02-19T11:21:19.294Z,48
2016-02-19T11:22:19.375Z,48
2016-02-19T11:23:19.393Z,44
2016-02-19T11:24:19.427Z,44
2016-02-19T11:25:19.508Z,52
2016-02-19T11:26:19.558Z,56
2016-02-19T11:27:19.576Z,56
2016-02-19T11:28:19.657Z,60
2016-02-19T11:29:19.691Z,64
2016-02-19T11:30:19.755Z,64
2016-02-19T11:31:19.790Z,72
2016-02-19T11:32:19.871Z,72
2016-02-19T11:33:19.904Z,72
2016-02-19T11:34:19.970Z,72
2016-02-19T11:35:19.973Z,76
2016-02-19T11:36:20.068Z,72
2016-02-19T11:37:20.104Z,72
2016-02-19T11:38:20.121Z,64
2016-02-19T11:39:20.201Z,60
2016-02-19T11:40:20.252Z,60
2016-02-19T11:41:20.270Z,52
2016-02-19T11:42:20.350Z,44
2016-02-19T11:43:20.400Z,44
2016-02-19T11:44:20.450Z,44
2016-02-19T11:45:20.592Z,44
2016-02-19T11:46:20.534Z,44
2016-02-19T11:47:20.598Z,44
2016-02-19T11:48:20.647Z,44
2016-02-19T11:49:20.698Z,40
2016-02-19T11:50:20.747Z,40
2016-02-19T11:51:20.796Z,36
2016-02-19T11:52:20.846Z,36
2016-02-19T11:53:20.880Z,36
2016-02-19T11:54:20.945Z,36
2016-02-19T11:55:20.995Z,32
2016-02-19T11:56:21.060Z,36
2016-02-19T11:57:21.078Z,32
2016-02-19T11:58:21.144Z,32
2016-02-19T11:59:21.208Z,32
2016-02-19T12:00:21.243Z,32
2016-02-19T12:01:21.293Z,36
2016-02-19T12:02:21.357Z,36
2016-02-19T12:03:21.424Z,36
2016-02-19T12:04:21.519Z,36
2016-02-19T12:05:21.538Z,32
2016-02-19T12:06:21.557Z,36
2016-02-19T12:07:21.590Z,36
2016-02-19T12:08:21.718Z,36
2016-02-19T12:09:21.689Z,36
2016-02-19T12:10:21.801Z,36
2016-02-19T12:11:21.803Z,36
2016-02-19T12:12:21.838Z,40
2016-02-19T12:13:21.903Z,40
2016-02-19T12:14:21.952Z,36
2016-02-19T12:15:21.987Z,36
2016-02-19T12:16:22.067Z,40
2016-02-19T12:17:22.100Z,40
2016-02-19T12:18:22.135Z,44
2016-02-19T12:19:22.231Z,44
2016-02-19T12:20:22.281Z,36
2016-02-19T12:21:22.331Z,36
2016-02-19T12:22:22.395Z,36
2016-02-19T12:23:22.414Z,32
2016-02-19T12:24:22.463Z,28
2016-02-19T12:25:22.497Z,32
2016-02-19T12:26:22.562Z,32
2016-02-19T12:27:22.596Z,28
2016-02-19T12:28:22.630Z,28
2016-02-19T12:29:22.711Z,28
2016-02-19T12:30:22.761Z,28
2016-02-19T12:31:22.779Z,32
2016-02-19T12:32:22.844Z,36
2016-02-19T12:33:22.910Z,36
2016-02-19T12:34:22.959Z,36
2016-02-19T12:35:22.993Z,32
2016-02-19T12:36:23.043Z,32
2016-02-19T12:37:23.108Z,36
2016-02-19T12:38:23.157Z,32
2016-02-19T12:39:23.207Z,32
2016-02-19T12:40:23.257Z,32
2016-02-19T12:41:23.321Z,28
2016-02-19T12:42:23.339Z,28
2016-02-19T12:43:23.406Z,24
2016-02-19T12:44:23.470Z,24
2016-02-19T12:45:23.489Z,24
2016-02-19T12:46:24.101Z,24
2016-02-19T12:47:23.619Z,20
2016-02-19T12:48:23.669Z,20
2016-02-19T12:49:23.718Z,24
2016-02-19T12:50:23.767Z,20
2016-02-19T12:51:23.802Z,24
2016-02-19T12:52:23.883Z,20
2016-02-19T12:53:23.900Z,20
2016-02-19T12:54:23.967Z,20
2016-02-19T12:55:24.016Z,20
2016-02-19T12:56:24.049Z,20
2016-02-19T12:57:24.114Z,20
2016-02-19T12:58:24.164Z,16
2016-02-19T12:59:24.213Z,20
2016-02-19T13:00:24.280Z,24
2016-02-19T13:01:24.297Z,24
2016-02-19T13:02:24.363Z,24
2016-02-19T13:03:24.427Z,24
2016-02-19T13:04:24.462Z,20
2016-02-19T13:05:24.511Z,20
2016-02-19T13:06:24.592Z,20
2016-02-19T13:07:24.595Z,24
2016-02-19T13:08:24.644Z,20
2016-02-19T13:09:24.725Z,20
2016-02-19T13:10:24.760Z,24
2016-02-19T13:11:24.840Z,20
2016-02-19T13:12:24.873Z,24
2016-02-19T13:13:24.893Z,20
2016-02-19T13:14:25.004Z,24
2016-02-19T13:15:25.037Z,20
2016-02-19T13:16:25.041Z,24
2016-02-19T13:17:25.122Z,20
2016-02-19T13:18:25.171Z,16
2016-02-19T13:19:25.205Z,16
2016-02-19T13:20:25.270Z,16
2016-02-19T13:21:25.336Z,16
2016-02-19T13:22:25.400Z,16
2016-02-19T13:23:25.419Z,16
2016-02-19T13:24:25.484Z,16
2016-02-19T13:25:25.518Z,12
2016-02-19T13:26:25.567Z,16
2016-02-19T13:27:25.602Z,16
2016-02-19T13:28:25.666Z,20
2016-02-19T13:29:25.716Z,20
2016-02-19T13:30:25.750Z,20
2016-02-19T13:31:25.815Z,20
2016-02-19T13:32:25.881Z,16
2016-02-19T13:33:25.899Z,16
2016-02-19T13:34:25.964Z,16
2016-02-19T13:35:26.045Z,16
2016-02-19T13:36:26.079Z,20
2016-02-19T13:37:26.301Z,20
2016-02-19T13:38:26.240Z,28
2016-02-19T13:39:26.509Z,28
2016-02-19T13:40:26.526Z,32
2016-02-19T13:41:26.499Z,32
2016-02-19T13:42:26.471Z,32
2016-02-19T13:43:26.426Z,36
2016-02-19T13:44:26.475Z,36
2016-02-19T13:45:26.494Z,32
2016-02-19T13:46:26.559Z,32
2016-02-19T13:47:26.623Z,32
2016-02-19T13:48:26.659Z,32
2016-02-19T13:49:26.739Z,28
2016-02-19T13:50:26.742Z,28
2016-02-19T13:51:26.823Z,24
2016-02-19T13:52:26.856Z,24
2016-02-19T13:53:26.890Z,28
2016-02-19T13:54:27.002Z,24
2016-02-19T13:55:27.005Z,24
2016-02-19T13:56:27.055Z,24
2016-02-19T13:57:27.135Z,24
2016-02-19T13:58:27.170Z,24
2016-02-19T13:59:27.219Z,20
2016-02-19T14:00:27.268Z,20
2016-02-19T14:01:27.334Z,20
2016-02-19T14:02:27.352Z,16
2016-02-19T14:03:27.401Z,20
2016-02-19T14:04:27.514Z,20
2016-02-19T14:05:27.501Z,20
2016-02-19T14:06:27.566Z,20
2016-02-19T14:07:27.616Z,20
2016-02-19T14:08:27.649Z,20
2016-02-19T14:09:27.699Z,20
2016-02-19T14:10:27.748Z,20
2016-02-19T14:11:27.813Z,20
2016-02-19T14:12:27.879Z,20
2016-02-19T14:13:27.929Z,20
2016-02-19T14:14:27.446Z,20
2016-02-19T14:15:28.028Z,24
2016-02-19T14:16:28.062Z,24
2016-02-19T14:17:28.096Z,20
2016-02-19T14:18:28.176Z,24
2016-02-19T14:19:28.226Z,24
2016-02-19T14:20:28.275Z,24
2016-02-19T14:21:28.357Z,24
2016-02-19T14:22:28.359Z,28
2016-02-19T14:23:28.408Z,28
2016-02-19T14:24:28.536Z,28
2016-02-19T14:25:28.508Z,28
2016-02-19T14:26:28.587Z,28
2016-02-19T14:27:28.592Z,24
2016-02-19T14:28:28.661Z,24
2016-02-19T14:29:28.683Z,28
2016-02-19T14:30:27.969Z,24
2016-02-19T14:31:28.741Z,24